sensor_id;sensor_type;location;lat;lon;timestamp;temperature;humidity
1175;DHT22;576;48.418;10.074;2023-02-15T00:00:11;21.50;51.70
1175;DHT22;576;48.418;10.074;2023-02-15T00:02:39;21.50;51.60
1175;DHT22;576;48.418;10.074;2023-02-15T00:05:09;21.50;51.60
1175;DHT22;576;48.418;10.074;2023-02-15T00:07:37;21.50;51.60
1175;DHT22;576;48.418;10.074;2023-02-15T00:10:06;21.50;51.60
1175;DHT22;576;48.418;10.074;2023-02-15T00:12:35;21.50;51.60
1175;DHT22;576;48.418;10.074;2023-02-15T00:15:03;21.50;51.60
1175;DHT22;576;48.418;10.074;2023-02-15T00:17:31;21.50;51.60
1175;DHT22;576;48.418;10.074;2023-02-15T00:19:59;21.50;51.60
1175;DHT22;576;48.418;10.074;2023-02-15T00:22:29;21.50;51.60
1175;DHT22;576;48.418;10.074;2023-02-15T00:24:57;21.50;51.50
1175;DHT22;576;48.418;10.074;2023-02-15T00:27:25;21.50;51.50
1175;DHT22;576;48.418;10.074;2023-02-15T00:29:54;21.50;51.50
1175;DHT22;576;48.418;10.074;2023-02-15T00:32:22;21.50;51.50
1175;DHT22;576;48.418;10.074;2023-02-15T00:34:50;21.40;51.50
1175;DHT22;576;48.418;10.074;2023-02-15T00:37:18;21.40;51.50
1175;DHT22;576;48.418;10.074;2023-02-15T00:39:48;21.40;51.50
1175;DHT22;576;48.418;10.074;2023-02-15T00:42:16;21.40;51.50
1175;DHT22;576;48.418;10.074;2023-02-15T00:44:44;21.40;51.50
1175;DHT22;576;48.418;10.074;2023-02-15T00:47:13;21.40;51.50
1175;DHT22;576;48.418;10.074;2023-02-15T00:49:41;21.40;51.50
1175;DHT22;576;48.418;10.074;2023-02-15T00:52:09;21.40;51.50
1175;DHT22;576;48.418;10.074;2023-02-15T00:54:37;21.40;51.50
1175;DHT22;576;48.418;10.074;2023-02-15T00:57:07;21.40;51.50
1175;DHT22;576;48.418;10.074;2023-02-15T00:59:36;21.30;51.50
1175;DHT22;576;48.418;10.074;2023-02-15T01:02:04;21.30;51.50
1175;DHT22;576;48.418;10.074;2023-02-15T01:04:32;21.30;51.50
1175;DHT22;576;48.418;10.074;2023-02-15T01:07:00;21.30;51.50
1175;DHT22;576;48.418;10.074;2023-02-15T01:09:32;21.30;51.50
1175;DHT22;576;48.418;10.074;2023-02-15T01:12:02;21.30;51.50
1175;DHT22;576;48.418;10.074;2023-02-15T01:14:32;21.30;51.50
1175;DHT22;576;48.418;10.074;2023-02-15T01:17:00;21.30;51.50
1175;DHT22;576;48.418;10.074;2023-02-15T01:19:28;21.30;51.40
1175;DHT22;576;48.418;10.074;2023-02-15T01:21:56;21.30;51.40
1175;DHT22;576;48.418;10.074;2023-02-15T01:24:24;21.30;51.40
1175;DHT22;576;48.418;10.074;2023-02-15T01:26:55;21.40;51.40
1175;DHT22;576;48.418;10.074;2023-02-15T01:29:26;21.40;51.40
1175;DHT22;576;48.418;10.074;2023-02-15T01:31:55;21.30;51.40
1175;DHT22;576;48.418;10.074;2023-02-15T01:34:23;21.40;51.30
1175;DHT22;576;48.418;10.074;2023-02-15T01:36:52;21.40;51.30
1175;DHT22;576;48.418;10.074;2023-02-15T01:39:20;21.40;51.30
1175;DHT22;576;48.418;10.074;2023-02-15T01:41:49;21.40;51.30
1175;DHT22;576;48.418;10.074;2023-02-15T01:44:45;21.40;51.30
1175;DHT22;576;48.418;10.074;2023-02-15T01:47:18;21.40;51.30
1175;DHT22;576;48.418;10.074;2023-02-15T01:49:51;21.40;51.30
1175;DHT22;576;48.418;10.074;2023-02-15T01:52:23;21.40;51.20
1175;DHT22;576;48.418;10.074;2023-02-15T01:54:51;21.40;51.20
1175;DHT22;576;48.418;10.074;2023-02-15T01:57:23;21.40;51.20
1175;DHT22;576;48.418;10.074;2023-02-15T01:59:55;21.40;51.20
1175;DHT22;576;48.418;10.074;2023-02-15T02:02:27;21.40;51.20
1175;DHT22;576;48.418;10.074;2023-02-15T02:04:59;21.40;51.10
1175;DHT22;576;48.418;10.074;2023-02-15T02:07:32;21.40;51.10
1175;DHT22;576;48.418;10.074;2023-02-15T02:10:02;21.40;51.10
1175;DHT22;576;48.418;10.074;2023-02-15T02:12:33;21.40;51.10
1175;DHT22;576;48.418;10.074;2023-02-15T02:15:04;21.40;51.10
1175;DHT22;576;48.418;10.074;2023-02-15T02:17:42;21.40;51.10
1175;DHT22;576;48.418;10.074;2023-02-15T02:20:30;21.40;51.10
1175;DHT22;576;48.418;10.074;2023-02-15T02:29:17;21.40;51.10
1175;DHT22;576;48.418;10.074;2023-02-15T02:34:53;21.40;51.10
1175;DHT22;576;48.418;10.074;2023-02-15T02:37:27;21.30;51.00
1175;DHT22;576;48.418;10.074;2023-02-15T02:40:03;21.30;51.00
1175;DHT22;576;48.418;10.074;2023-02-15T02:42:39;21.40;51.00
1175;DHT22;576;48.418;10.074;2023-02-15T02:45:09;21.30;51.00
1175;DHT22;576;48.418;10.074;2023-02-15T02:47:44;21.30;51.00
1175;DHT22;576;48.418;10.074;2023-02-15T02:50:18;21.30;51.00
1175;DHT22;576;48.418;10.074;2023-02-15T02:52:48;21.30;51.00
1175;DHT22;576;48.418;10.074;2023-02-15T02:55:19;21.30;51.00
1175;DHT22;576;48.418;10.074;2023-02-15T02:57:53;21.30;51.00
1175;DHT22;576;48.418;10.074;2023-02-15T03:00:24;21.30;51.00
1175;DHT22;576;48.418;10.074;2023-02-15T03:02:58;21.30;51.00
1175;DHT22;576;48.418;10.074;2023-02-15T03:05:34;21.30;51.00
1175;DHT22;576;48.418;10.074;2023-02-15T03:08:06;21.30;51.00
1175;DHT22;576;48.418;10.074;2023-02-15T03:10:38;21.30;50.90
1175;DHT22;576;48.418;10.074;2023-02-15T03:13:08;21.30;50.90
1175;DHT22;576;48.418;10.074;2023-02-15T03:15:38;21.30;50.90
1175;DHT22;576;48.418;10.074;2023-02-15T03:18:28;21.30;50.90
1175;DHT22;576;48.418;10.074;2023-02-15T03:21:01;21.30;50.90
1175;DHT22;576;48.418;10.074;2023-02-15T03:23:30;21.30;50.90
1175;DHT22;576;48.418;10.074;2023-02-15T03:26:02;21.30;50.90
1175;DHT22;576;48.418;10.074;2023-02-15T03:28:36;21.30;50.90
1175;DHT22;576;48.418;10.074;2023-02-15T03:31:08;21.30;50.90
1175;DHT22;576;48.418;10.074;2023-02-15T03:33:40;21.30;50.90
1175;DHT22;576;48.418;10.074;2023-02-15T03:36:14;21.30;50.90
1175;DHT22;576;48.418;10.074;2023-02-15T03:38:51;21.30;50.90
1175;DHT22;576;48.418;10.074;2023-02-15T03:41:24;21.30;50.90
1175;DHT22;576;48.418;10.074;2023-02-15T03:43:56;21.30;50.90
1175;DHT22;576;48.418;10.074;2023-02-15T03:46:29;21.30;50.90
1175;DHT22;576;48.418;10.074;2023-02-15T03:49:03;21.30;50.90
1175;DHT22;576;48.418;10.074;2023-02-15T03:51:36;21.30;50.90
1175;DHT22;576;48.418;10.074;2023-02-15T03:54:07;21.30;50.90
1175;DHT22;576;48.418;10.074;2023-02-15T03:56:37;21.30;50.90
1175;DHT22;576;48.418;10.074;2023-02-15T03:59:06;21.30;50.80
1175;DHT22;576;48.418;10.074;2023-02-15T04:02:04;21.30;50.80
1175;DHT22;576;48.418;10.074;2023-02-15T04:04:42;21.30;50.80
1175;DHT22;576;48.418;10.074;2023-02-15T04:07:12;21.30;50.80
1175;DHT22;576;48.418;10.074;2023-02-15T04:09:40;21.30;50.80
1175;DHT22;576;48.418;10.074;2023-02-15T04:12:26;21.30;50.80
1175;DHT22;576;48.418;10.074;2023-02-15T04:14:54;21.30;50.80
1175;DHT22;576;48.418;10.074;2023-02-15T04:17:39;21.30;50.80
1175;DHT22;576;48.418;10.074;2023-02-15T04:20:08;21.30;50.80
1175;DHT22;576;48.418;10.074;2023-02-15T04:22:55;21.30;50.80
1175;DHT22;576;48.418;10.074;2023-02-15T04:25:41;21.30;50.80
1175;DHT22;576;48.418;10.074;2023-02-15T04:28:09;21.30;50.80
1175;DHT22;576;48.418;10.074;2023-02-15T04:30:37;21.30;50.70
1175;DHT22;576;48.418;10.074;2023-02-15T04:33:05;21.20;50.70
1175;DHT22;576;48.418;10.074;2023-02-15T04:35:33;21.30;50.70
1175;DHT22;576;48.418;10.074;2023-02-15T04:38:03;21.30;50.70
1175;DHT22;576;48.418;10.074;2023-02-15T04:40:31;21.30;50.70
1175;DHT22;576;48.418;10.074;2023-02-15T04:42:59;21.30;50.70
1175;DHT22;576;48.418;10.074;2023-02-15T04:45:27;21.30;50.70
1175;DHT22;576;48.418;10.074;2023-02-15T04:47:56;21.30;50.70
1175;DHT22;576;48.418;10.074;2023-02-15T04:50:24;21.20;50.70
1175;DHT22;576;48.418;10.074;2023-02-15T04:52:52;21.20;50.70
1175;DHT22;576;48.418;10.074;2023-02-15T04:55:21;21.20;50.70
1175;DHT22;576;48.418;10.074;2023-02-15T04:57:49;21.20;50.70
1175;DHT22;576;48.418;10.074;2023-02-15T05:00:18;21.20;50.70
1175;DHT22;576;48.418;10.074;2023-02-15T05:02:48;21.20;50.60
1175;DHT22;576;48.418;10.074;2023-02-15T05:05:16;21.20;50.60
1175;DHT22;576;48.418;10.074;2023-02-15T05:07:45;21.20;50.60
1175;DHT22;576;48.418;10.074;2023-02-15T05:10:13;21.20;50.60
1175;DHT22;576;48.418;10.074;2023-02-15T05:12:42;21.20;50.60
1175;DHT22;576;48.418;10.074;2023-02-15T05:15:11;21.20;50.60
1175;DHT22;576;48.418;10.074;2023-02-15T05:17:39;21.20;50.60
1175;DHT22;576;48.418;10.074;2023-02-15T05:20:07;21.20;50.60
1175;DHT22;576;48.418;10.074;2023-02-15T05:22:36;21.20;50.60
1175;DHT22;576;48.418;10.074;2023-02-15T05:25:04;21.20;50.60
1175;DHT22;576;48.418;10.074;2023-02-15T05:27:51;21.20;50.60
1175;DHT22;576;48.418;10.074;2023-02-15T05:30:37;21.20;50.60
1175;DHT22;576;48.418;10.074;2023-02-15T05:33:06;21.20;50.60
1175;DHT22;576;48.418;10.074;2023-02-15T05:35:35;21.20;50.60
1175;DHT22;576;48.418;10.074;2023-02-15T05:38:03;21.20;50.60
1175;DHT22;576;48.418;10.074;2023-02-15T05:40:32;21.20;50.60
1175;DHT22;576;48.418;10.074;2023-02-15T05:43:01;21.20;50.60
1175;DHT22;576;48.418;10.074;2023-02-15T05:45:29;21.20;50.60
1175;DHT22;576;48.418;10.074;2023-02-15T05:47:58;21.20;50.70
1175;DHT22;576;48.418;10.074;2023-02-15T05:50:26;21.20;50.70
1175;DHT22;576;48.418;10.074;2023-02-15T05:52:54;21.20;50.90
1175;DHT22;576;48.418;10.074;2023-02-15T05:55:22;21.20;51.00
1175;DHT22;576;48.418;10.074;2023-02-15T05:57:50;21.30;51.20
1175;DHT22;576;48.418;10.074;2023-02-15T06:00:22;21.30;51.30
1175;DHT22;576;48.418;10.074;2023-02-15T06:02:54;21.30;51.30
1175;DHT22;576;48.418;10.074;2023-02-15T06:05:23;21.30;51.40
1175;DHT22;576;48.418;10.074;2023-02-15T06:07:51;21.30;51.50
1175;DHT22;576;48.418;10.074;2023-02-15T06:10:19;21.30;51.50
1175;DHT22;576;48.418;10.074;2023-02-15T06:12:47;21.30;51.50
1175;DHT22;576;48.418;10.074;2023-02-15T06:15:15;21.30;51.60
1175;DHT22;576;48.418;10.074;2023-02-15T06:17:45;21.20;51.70
1175;DHT22;576;48.418;10.074;2023-02-15T06:20:13;21.20;51.80
1175;DHT22;576;48.418;10.074;2023-02-15T06:22:41;21.20;51.90
1175;DHT22;576;48.418;10.074;2023-02-15T06:25:09;21.20;51.90
1175;DHT22;576;48.418;10.074;2023-02-15T06:27:41;21.20;52.00
1175;DHT22;576;48.418;10.074;2023-02-15T06:30:10;21.20;52.00
1175;DHT22;576;48.418;10.074;2023-02-15T06:32:39;21.20;52.10
1175;DHT22;576;48.418;10.074;2023-02-15T06:35:10;21.20;52.10
1175;DHT22;576;48.418;10.074;2023-02-15T06:37:38;21.10;52.20
1175;DHT22;576;48.418;10.074;2023-02-15T06:40:07;21.20;52.20
1175;DHT22;576;48.418;10.074;2023-02-15T06:42:36;21.10;52.20
1175;DHT22;576;48.418;10.074;2023-02-15T06:45:04;21.10;52.20
1175;DHT22;576;48.418;10.074;2023-02-15T06:47:34;21.10;52.20
1175;DHT22;576;48.418;10.074;2023-02-15T06:50:02;21.10;52.20
1175;DHT22;576;48.418;10.074;2023-02-15T06:52:32;21.20;52.20
1175;DHT22;576;48.418;10.074;2023-02-15T06:55:00;21.20;52.20
1175;DHT22;576;48.418;10.074;2023-02-15T06:57:29;21.20;52.20
1175;DHT22;576;48.418;10.074;2023-02-15T06:59:57;21.20;52.20
1175;DHT22;576;48.418;10.074;2023-02-15T07:02:25;21.20;52.20
1175;DHT22;576;48.418;10.074;2023-02-15T07:04:53;21.20;52.10
1175;DHT22;576;48.418;10.074;2023-02-15T07:07:22;21.30;52.10
1175;DHT22;576;48.418;10.074;2023-02-15T07:09:52;21.30;52.00
1175;DHT22;576;48.418;10.074;2023-02-15T07:12:20;21.30;52.00
1175;DHT22;576;48.418;10.074;2023-02-15T07:15:06;21.30;52.00
1175;DHT22;576;48.418;10.074;2023-02-15T07:17:36;21.30;52.20
1175;DHT22;576;48.418;10.074;2023-02-15T07:20:06;21.30;52.40
1175;DHT22;576;48.418;10.074;2023-02-15T07:22:35;21.30;52.50
1175;DHT22;576;48.418;10.074;2023-02-15T07:25:07;21.40;52.50
1175;DHT22;576;48.418;10.074;2023-02-15T07:27:36;21.40;52.40
1175;DHT22;576;48.418;10.074;2023-02-15T07:30:09;21.40;52.40
1175;DHT22;576;48.418;10.074;2023-02-15T07:32:37;21.40;52.30
1175;DHT22;576;48.418;10.074;2023-02-15T07:35:30;21.40;52.30
1175;DHT22;576;48.418;10.074;2023-02-15T07:38:00;21.40;52.30
1175;DHT22;576;48.418;10.074;2023-02-15T07:40:30;21.40;52.50
1175;DHT22;576;48.418;10.074;2023-02-15T07:42:58;21.40;52.60
1175;DHT22;576;48.418;10.074;2023-02-15T07:45:28;21.40;52.60
1175;DHT22;576;48.418;10.074;2023-02-15T07:47:56;21.40;52.70
1175;DHT22;576;48.418;10.074;2023-02-15T07:50:24;21.40;52.60
1175;DHT22;576;48.418;10.074;2023-02-15T07:52:52;21.40;52.60
1175;DHT22;576;48.418;10.074;2023-02-15T07:55:20;21.40;52.60
1175;DHT22;576;48.418;10.074;2023-02-15T07:57:50;21.40;52.60
1175;DHT22;576;48.418;10.074;2023-02-15T08:00:21;21.40;52.50
1175;DHT22;576;48.418;10.074;2023-02-15T08:02:54;21.50;52.50
1175;DHT22;576;48.418;10.074;2023-02-15T08:05:36;21.50;52.40
1175;DHT22;576;48.418;10.074;2023-02-15T08:08:05;21.50;52.40
1175;DHT22;576;48.418;10.074;2023-02-15T08:10:33;21.60;52.30
1175;DHT22;576;48.418;10.074;2023-02-15T08:13:21;21.60;52.20
1175;DHT22;576;48.418;10.074;2023-02-15T08:15:50;21.60;52.10
1175;DHT22;576;48.418;10.074;2023-02-15T08:18:18;21.60;52.10
1175;DHT22;576;48.418;10.074;2023-02-15T08:20:49;21.70;51.90
1175;DHT22;576;48.418;10.074;2023-02-15T08:23:17;21.70;51.90
1175;DHT22;576;48.418;10.074;2023-02-15T08:25:46;21.80;51.80
1175;DHT22;576;48.418;10.074;2023-02-15T08:28:14;21.80;51.80
1175;DHT22;576;48.418;10.074;2023-02-15T08:30:43;21.80;51.70
1175;DHT22;576;48.418;10.074;2023-02-15T08:33:11;21.80;51.60
1175;DHT22;576;48.418;10.074;2023-02-15T08:35:40;21.80;51.60
1175;DHT22;576;48.418;10.074;2023-02-15T08:38:08;21.80;51.60
1175;DHT22;576;48.418;10.074;2023-02-15T08:40:36;21.80;51.60
1175;DHT22;576;48.418;10.074;2023-02-15T08:43:04;21.80;51.50
1175;DHT22;576;48.418;10.074;2023-02-15T08:45:33;21.80;51.50
1175;DHT22;576;48.418;10.074;2023-02-15T08:48:03;21.80;51.40
1175;DHT22;576;48.418;10.074;2023-02-15T08:50:31;21.80;51.40
1175;DHT22;576;48.418;10.074;2023-02-15T08:53:00;21.80;51.40
1175;DHT22;576;48.418;10.074;2023-02-15T08:55:28;21.80;51.40
1175;DHT22;576;48.418;10.074;2023-02-15T08:57:57;21.80;51.40
1175;DHT22;576;48.418;10.074;2023-02-15T09:00:25;21.80;51.40
1175;DHT22;576;48.418;10.074;2023-02-15T09:02:53;21.80;51.40
1175;DHT22;576;48.418;10.074;2023-02-15T09:05:23;21.80;51.40
1175;DHT22;576;48.418;10.074;2023-02-15T09:07:51;21.90;51.40
1175;DHT22;576;48.418;10.074;2023-02-15T09:10:19;21.90;51.40
1175;DHT22;576;48.418;10.074;2023-02-15T09:12:47;21.90;51.40
1175;DHT22;576;48.418;10.074;2023-02-15T09:15:17;21.90;51.40
1175;DHT22;576;48.418;10.074;2023-02-15T09:17:45;21.90;51.40
1175;DHT22;576;48.418;10.074;2023-02-15T09:20:13;21.90;51.40
1175;DHT22;576;48.418;10.074;2023-02-15T09:22:42;21.90;51.40
1175;DHT22;576;48.418;10.074;2023-02-15T09:25:11;21.90;51.30
1175;DHT22;576;48.418;10.074;2023-02-15T09:27:40;21.90;51.30
1175;DHT22;576;48.418;10.074;2023-02-15T09:30:09;21.90;51.30
1175;DHT22;576;48.418;10.074;2023-02-15T09:32:38;21.90;51.50
1175;DHT22;576;48.418;10.074;2023-02-15T09:35:06;21.90;51.50
1175;DHT22;576;48.418;10.074;2023-02-15T09:37:35;21.90;51.50
1175;DHT22;576;48.418;10.074;2023-02-15T09:40:05;21.90;51.50
1175;DHT22;576;48.418;10.074;2023-02-15T09:42:53;21.90;51.50
1175;DHT22;576;48.418;10.074;2023-02-15T09:45:31;21.90;51.50
1175;DHT22;576;48.418;10.074;2023-02-15T09:51:19;21.80;51.50
1175;DHT22;576;48.418;10.074;2023-02-15T09:54:04;21.80;51.50
1175;DHT22;576;48.418;10.074;2023-02-15T09:56:44;21.90;51.50
1175;DHT22;576;48.418;10.074;2023-02-15T09:59:19;21.90;51.40
1175;DHT22;576;48.418;10.074;2023-02-15T10:02:01;21.90;51.40
1175;DHT22;576;48.418;10.074;2023-02-15T10:04:46;21.90;51.40
1175;DHT22;576;48.418;10.074;2023-02-15T10:07:30;21.90;51.40
1175;DHT22;576;48.418;10.074;2023-02-15T10:10:09;21.90;51.50
1175;DHT22;576;48.418;10.074;2023-02-15T10:12:56;21.90;51.40
1175;DHT22;576;48.418;10.074;2023-02-15T10:15:33;21.90;51.40
1175;DHT22;576;48.418;10.074;2023-02-15T10:18:17;21.90;51.40
1175;DHT22;576;48.418;10.074;2023-02-15T10:20:54;21.90;51.50
1175;DHT22;576;48.418;10.074;2023-02-15T10:23:43;21.90;51.50
1175;DHT22;576;48.418;10.074;2023-02-15T10:26:18;21.90;51.50
1175;DHT22;576;48.418;10.074;2023-02-15T10:28:52;21.90;51.50
1175;DHT22;576;48.418;10.074;2023-02-15T10:31:24;21.90;51.50
1175;DHT22;576;48.418;10.074;2023-02-15T10:34:11;21.90;51.40
1175;DHT22;576;48.418;10.074;2023-02-15T10:36:53;21.90;51.20
1175;DHT22;576;48.418;10.074;2023-02-15T10:39:32;21.90;51.10
1175;DHT22;576;48.418;10.074;2023-02-15T10:42:09;22.00;51.00
1175;DHT22;576;48.418;10.074;2023-02-15T10:44:51;22.00;51.10
1175;DHT22;576;48.418;10.074;2023-02-15T10:47:40;22.00;51.10
1175;DHT22;576;48.418;10.074;2023-02-15T10:50:17;22.00;51.00
1175;DHT22;576;48.418;10.074;2023-02-15T10:52:59;22.00;51.00
1175;DHT22;576;48.418;10.074;2023-02-15T10:55:41;22.00;51.00
1175;DHT22;576;48.418;10.074;2023-02-15T10:58:20;22.00;50.90
1175;DHT22;576;48.418;10.074;2023-02-15T11:00:59;22.00;50.90
1175;DHT22;576;48.418;10.074;2023-02-15T11:03:40;22.00;50.90
1175;DHT22;576;48.418;10.074;2023-02-15T11:06:12;22.00;50.80
1175;DHT22;576;48.418;10.074;2023-02-15T11:08:44;22.00;50.90
1175;DHT22;576;48.418;10.074;2023-02-15T11:11:16;22.00;50.60
1175;DHT22;576;48.418;10.074;2023-02-15T11:13:51;22.00;50.90
1175;DHT22;576;48.418;10.074;2023-02-15T11:16:25;22.00;51.00
1175;DHT22;576;48.418;10.074;2023-02-15T11:22:55;22.00;50.80
1175;DHT22;576;48.418;10.074;2023-02-15T11:25:25;22.10;50.70
1175;DHT22;576;48.418;10.074;2023-02-15T11:27:57;22.10;50.80
1175;DHT22;576;48.418;10.074;2023-02-15T11:30:32;22.10;50.80
1175;DHT22;576;48.418;10.074;2023-02-15T11:33:05;22.10;50.80
1175;DHT22;576;48.418;10.074;2023-02-15T11:35:38;22.00;50.90
1175;DHT22;576;48.418;10.074;2023-02-15T11:38:14;22.00;50.90
1175;DHT22;576;48.418;10.074;2023-02-15T11:40:47;22.00;50.90
1175;DHT22;576;48.418;10.074;2023-02-15T11:43:20;22.10;50.80
1175;DHT22;576;48.418;10.074;2023-02-15T11:45:48;22.30;50.60
1175;DHT22;576;48.418;10.074;2023-02-15T11:48:18;22.40;50.40
1175;DHT22;576;48.418;10.074;2023-02-15T11:50:46;22.50;50.30
1175;DHT22;576;48.418;10.074;2023-02-15T11:53:16;22.50;50.30
1175;DHT22;576;48.418;10.074;2023-02-15T11:55:46;22.50;50.30
1175;DHT22;576;48.418;10.074;2023-02-15T11:58:26;22.50;50.50
1175;DHT22;576;48.418;10.074;2023-02-15T12:01:00;22.60;50.50
1175;DHT22;576;48.418;10.074;2023-02-15T12:03:43;22.70;50.50
1175;DHT22;576;48.418;10.074;2023-02-15T12:06:18;22.80;50.70
1175;DHT22;576;48.418;10.074;2023-02-15T12:08:55;22.90;51.90
1175;DHT22;576;48.418;10.074;2023-02-15T12:11:29;23.10;51.80
1175;DHT22;576;48.418;10.074;2023-02-15T12:13:59;23.40;50.90
1175;DHT22;576;48.418;10.074;2023-02-15T12:16:33;23.60;50.30
1175;DHT22;576;48.418;10.074;2023-02-15T12:19:04;23.70;50.00
1175;DHT22;576;48.418;10.074;2023-02-15T12:21:34;23.80;50.10
1175;DHT22;576;48.418;10.074;2023-02-15T12:24:14;24.00;49.90
1175;DHT22;576;48.418;10.074;2023-02-15T12:26:56;24.10;49.80
1175;DHT22;576;48.418;10.074;2023-02-15T12:29:27;24.20;49.70
1175;DHT22;576;48.418;10.074;2023-02-15T12:31:57;24.30;49.60
1175;DHT22;576;48.418;10.074;2023-02-15T12:34:36;24.30;49.50
1175;DHT22;576;48.418;10.074;2023-02-15T12:37:10;24.40;49.40
1175;DHT22;576;48.418;10.074;2023-02-15T12:39:51;24.50;49.20
1175;DHT22;576;48.418;10.074;2023-02-15T12:42:20;24.60;49.10
1175;DHT22;576;48.418;10.074;2023-02-15T12:44:59;24.60;49.00
1175;DHT22;576;48.418;10.074;2023-02-15T12:47:28;24.60;49.00
1175;DHT22;576;48.418;10.074;2023-02-15T12:50:23;24.70;49.00
1175;DHT22;576;48.418;10.074;2023-02-15T12:53:07;24.70;48.70
1175;DHT22;576;48.418;10.074;2023-02-15T12:55:35;24.70;48.50
1175;DHT22;576;48.418;10.074;2023-02-15T12:58:16;24.80;48.20
1175;DHT22;576;48.418;10.074;2023-02-15T13:00:45;24.80;48.30
1175;DHT22;576;48.418;10.074;2023-02-15T13:03:18;24.80;48.20
1175;DHT22;576;48.418;10.074;2023-02-15T13:05:50;24.80;48.20
1175;DHT22;576;48.418;10.074;2023-02-15T13:08:21;24.80;48.10
1175;DHT22;576;48.418;10.074;2023-02-15T13:10:55;24.80;48.10
1175;DHT22;576;48.418;10.074;2023-02-15T13:13:26;24.80;48.10
1175;DHT22;576;48.418;10.074;2023-02-15T13:15:58;24.80;48.20
1175;DHT22;576;48.418;10.074;2023-02-15T13:18:31;24.80;48.20
1175;DHT22;576;48.418;10.074;2023-02-15T13:21:09;24.80;48.10
1175;DHT22;576;48.418;10.074;2023-02-15T13:23:39;24.80;48.20
1175;DHT22;576;48.418;10.074;2023-02-15T13:26:14;24.80;48.20
1175;DHT22;576;48.418;10.074;2023-02-15T13:28:46;24.80;48.20
1175;DHT22;576;48.418;10.074;2023-02-15T13:31:17;24.80;48.20
1175;DHT22;576;48.418;10.074;2023-02-15T13:33:49;24.80;48.10
1175;DHT22;576;48.418;10.074;2023-02-15T13:36:25;24.80;48.20
1175;DHT22;576;48.418;10.074;2023-02-15T13:39:04;24.80;48.20
1175;DHT22;576;48.418;10.074;2023-02-15T13:41:48;24.80;48.50
1175;DHT22;576;48.418;10.074;2023-02-15T13:47:21;25.00;48.70
1175;DHT22;576;48.418;10.074;2023-02-15T13:50:03;25.00;48.80
1175;DHT22;576;48.418;10.074;2023-02-15T13:52:42;25.10;48.90
1175;DHT22;576;48.418;10.074;2023-02-15T13:55:26;25.10;49.00
1175;DHT22;576;48.418;10.074;2023-02-15T13:58:15;25.10;49.00
1175;DHT22;576;48.418;10.074;2023-02-15T14:00:59;25.10;49.00
1175;DHT22;576;48.418;10.074;2023-02-15T14:03:51;25.10;49.10
1175;DHT22;576;48.418;10.074;2023-02-15T14:06:48;25.10;49.20
1175;DHT22;576;48.418;10.074;2023-02-15T14:09:28;25.20;49.30
1175;DHT22;576;48.418;10.074;2023-02-15T14:12:14;25.20;49.30
1175;DHT22;576;48.418;10.074;2023-02-15T14:15:02;25.10;49.30
1175;DHT22;576;48.418;10.074;2023-02-15T14:17:43;25.10;49.30
1175;DHT22;576;48.418;10.074;2023-02-15T14:20:19;25.10;49.40
1175;DHT22;576;48.418;10.074;2023-02-15T14:22:54;25.10;49.50
1175;DHT22;576;48.418;10.074;2023-02-15T14:25:28;25.10;49.50
1175;DHT22;576;48.418;10.074;2023-02-15T14:28:03;25.10;49.60
1175;DHT22;576;48.418;10.074;2023-02-15T14:30:36;25.10;49.70
1175;DHT22;576;48.418;10.074;2023-02-15T14:33:07;25.10;49.70
1175;DHT22;576;48.418;10.074;2023-02-15T14:35:36;25.10;49.80
1175;DHT22;576;48.418;10.074;2023-02-15T14:38:12;25.10;49.80
1175;DHT22;576;48.418;10.074;2023-02-15T14:40:48;25.10;49.90
1175;DHT22;576;48.418;10.074;2023-02-15T14:43:43;25.10;49.90
1175;DHT22;576;48.418;10.074;2023-02-15T14:46:21;25.10;50.10
1175;DHT22;576;48.418;10.074;2023-02-15T14:48:53;25.00;50.10
1175;DHT22;576;48.418;10.074;2023-02-15T14:51:53;25.00;50.20
1175;DHT22;576;48.418;10.074;2023-02-15T14:54:58;25.00;50.20
1175;DHT22;576;48.418;10.074;2023-02-15T14:57:31;25.00;50.30
1175;DHT22;576;48.418;10.074;2023-02-15T15:00:34;25.00;50.40
1175;DHT22;576;48.418;10.074;2023-02-15T15:03:20;25.00;50.50
1175;DHT22;576;48.418;10.074;2023-02-15T15:05:52;25.00;50.70
1175;DHT22;576;48.418;10.074;2023-02-15T15:08:26;25.00;50.70
1175;DHT22;576;48.418;10.074;2023-02-15T15:10:56;25.00;50.80
1175;DHT22;576;48.418;10.074;2023-02-15T15:13:52;24.90;50.00
1175;DHT22;576;48.418;10.074;2023-02-15T15:19:12;24.80;49.60
1175;DHT22;576;48.418;10.074;2023-02-15T15:22:18;24.70;49.50
1175;DHT22;576;48.418;10.074;2023-02-15T15:24:49;24.70;49.50
1175;DHT22;576;48.418;10.074;2023-02-15T15:27:50;24.60;49.50
1175;DHT22;576;48.418;10.074;2023-02-15T15:40:22;24.50;49.70
1175;DHT22;576;48.418;10.074;2023-02-15T15:43:31;24.40;49.70
1175;DHT22;576;48.418;10.074;2023-02-15T15:46:28;24.40;49.80
1175;DHT22;576;48.418;10.074;2023-02-15T15:49:05;24.40;50.00
1175;DHT22;576;48.418;10.074;2023-02-15T15:51:34;24.40;49.90
1175;DHT22;576;48.418;10.074;2023-02-15T15:54:15;24.40;50.00
1175;DHT22;576;48.418;10.074;2023-02-15T15:56:47;24.30;49.90
1175;DHT22;576;48.418;10.074;2023-02-15T15:59:19;24.40;49.80
1175;DHT22;576;48.418;10.074;2023-02-15T16:01:49;24.30;49.80
1175;DHT22;576;48.418;10.074;2023-02-15T16:04:25;24.30;49.70
1175;DHT22;576;48.418;10.074;2023-02-15T16:06:54;24.30;49.70
1175;DHT22;576;48.418;10.074;2023-02-15T16:09:26;24.20;49.70
1175;DHT22;576;48.418;10.074;2023-02-15T16:11:56;24.20;49.80
1175;DHT22;576;48.418;10.074;2023-02-15T16:14:30;24.20;50.00
1175;DHT22;576;48.418;10.074;2023-02-15T16:17:02;24.20;50.00
1175;DHT22;576;48.418;10.074;2023-02-15T16:19:33;24.20;50.00
1175;DHT22;576;48.418;10.074;2023-02-15T16:22:03;24.10;50.00
1175;DHT22;576;48.418;10.074;2023-02-15T16:27:45;24.10;50.20
1175;DHT22;576;48.418;10.074;2023-02-15T16:30:23;24.00;50.20
1175;DHT22;576;48.418;10.074;2023-02-15T16:33:03;24.00;50.20
1175;DHT22;576;48.418;10.074;2023-02-15T16:35:33;23.90;50.80
1175;DHT22;576;48.418;10.074;2023-02-15T16:38:02;23.90;51.10
1175;DHT22;576;48.418;10.074;2023-02-15T16:40:46;23.80;51.30
1175;DHT22;576;48.418;10.074;2023-02-15T16:43:24;23.80;50.80
1175;DHT22;576;48.418;10.074;2023-02-15T16:46:02;23.80;50.80
1175;DHT22;576;48.418;10.074;2023-02-15T16:48:32;23.70;51.30
1175;DHT22;576;48.418;10.074;2023-02-15T16:51:01;23.70;51.50
1175;DHT22;576;48.418;10.074;2023-02-15T16:53:30;23.70;51.70
1175;DHT22;576;48.418;10.074;2023-02-15T16:56:00;23.60;51.80
1175;DHT22;576;48.418;10.074;2023-02-15T16:58:36;23.60;51.90
1175;DHT22;576;48.418;10.074;2023-02-15T17:01:08;23.60;52.10
1175;DHT22;576;48.418;10.074;2023-02-15T17:03:39;23.50;52.10
1175;DHT22;576;48.418;10.074;2023-02-15T17:06:20;23.50;52.30
1175;DHT22;576;48.418;10.074;2023-02-15T17:08:49;23.50;52.10
1175;DHT22;576;48.418;10.074;2023-02-15T17:11:19;23.50;52.40
1175;DHT22;576;48.418;10.074;2023-02-15T17:14:16;23.50;52.20
1175;DHT22;576;48.418;10.074;2023-02-15T17:16:49;23.40;51.50